Airfield :
LOGIN :

Register | Disclaimer

   EN    FR    IT 

 










Legend :    VFR   Marginal VFR   IFR   Intensive IFR   Very Intensive IFR
Visi :
Ceiling :
>= 8 km
>= 3000ft
5 to 8 km
1000 to 3000 ft
1500m to 5 km
500 to 1000 ft
800 to 1500m
200 to 500 ft
< 800m
< 200 ft
Symbols :   Thunderstorms  Fog  Heavy snow  Heavy precipitations  Wind > 20 kt
SIGMETs :     Misc.  Thunderstorms  Icing  Turbulence  Mountain Waves  Volcanic Ashes






- Airport Elevation : 333 ft


LIPL - Ghedi Brescia (Mil)

CURRENT METAR :
  • 281455Z 18002KT 9999 SCT035 25/10 Q1020 RMK SCT VIS MIN 9999 WIND THR31 12003KT WIND THR13 13003KT BLU

EXPIRED METARs :
  • 281355Z 16003KT 9999 FEW036 26/12 Q1020 RMK SCT VIS MIN 9999 WIND THR31 22004KT WIND THR13 22004KT BLU
  • 281255Z 10004KT 9999 FEW036 25/11 Q1021 RMK SCT VIS MIN 9999 WIND THR31 16006KT WIND THR13 16006KT BLU

TAF TAF LIPL
Valid from the 28 at 15:00 until the 29 at 00:00 UTC


281400Z 2815/2824 VRB03KT 9999 SCT030
TEMPO 2816/2818 FEW025CB SCT070
BECMG 2818/2820 04008KT 3500 SHRA FEW018CB SCT025 BKN040



MET'MAP, your aeronautical weather chart ! - Copyright ORBIFLY December 2007 - Disclaimer

ORBIFLY MET'MAP TEAM :

Programming & Development : Alexandra Zaïnal
Concept & original design : Baudouin d'Aumeries
Assistance for programming : Marc-Olivier Méhu
Technical & hardware support : Manuel Goepfert

Contact : metmap@orbifly.com




SOURCES & CREDITS :

   NOAA